Time;durP1;ratioP1;P1;durP2;ratioP2;P2;SDS_P1;SDS_P2;PMS_P1;PMS_P2;Temp;Humidity;BMP_temperature;BMP_pressure;BME280_temperature;BME280_humidity;BME280_pressure;Samples;Min_cycle;Max_cycle;Signal;HPM_P1;HPM_P2
2021/09/08 00:00:57;;;;;;;21.77;12.43;;;;;;;15.38;51.34;102171.25;5061103;28;20023;-71
2021/09/08 00:03:23;;;;;;;23.40;12.48;;;;;;;15.28;51.67;102172.56;5064171;28;20041;-71
2021/09/08 00:05:49;;;;;;;25.65;12.93;;;;;;;15.26;51.74;102166.50;5069443;28;20028;-71
2021/09/08 00:08:15;;;;;;;19.63;12.18;;;;;;;15.09;51.83;102167.09;5062014;28;20556;-71
2021/09/08 00:10:40;;;;;;;22.52;13.60;;;;;;;14.97;52.12;102168.44;5065613;28;20184;-71
2021/09/08 00:13:06;;;;;;;29.65;14.10;;;;;;;14.90;52.46;102163.47;5059573;28;20043;-71
2021/09/08 00:15:32;;;;;;;26.88;14.32;;;;;;;14.85;52.68;102168.03;5066127;28;20162;-71
2021/09/08 00:17:58;;;;;;;21.98;13.68;;;;;;;14.84;52.69;102171.59;5065435;28;20036;-71
2021/09/08 00:20:23;;;;;;;28.45;14.60;;;;;;;14.79;52.71;102171.78;5063377;28;20044;-71
2021/09/08 00:22:49;;;;;;;21.25;12.88;;;;;;;14.87;52.37;102168.84;5062582;28;20075;-71
2021/09/08 00:25:14;;;;;;;24.70;12.70;;;;;;;14.86;52.65;102170.63;5063366;28;20089;-71
2021/09/08 00:27:40;;;;;;;23.48;12.68;;;;;;;14.83;52.60;102164.59;5062903;28;20040;-71
2021/09/08 00:30:06;;;;;;;22.02;12.95;;;;;;;14.80;52.64;102164.75;5062796;28;20033;-71
2021/09/08 00:32:34;;;;;;;23.92;13.40;;;;;;;14.83;52.31;102161.97;5063103;28;20048;-71
2021/09/08 00:35:01;;;;;;;23.80;14.85;;;;;;;14.85;52.20;102168.03;5065776;28;20052;-71
2021/09/08 00:37:27;;;;;;;23.55;13.68;;;;;;;14.84;51.96;102161.94;5066758;28;20071;-71
2021/09/08 00:39:54;;;;;;;20.40;11.32;;;;;;;14.76;52.13;102167.47;5061906;28;20124;-71
2021/09/08 00:42:19;;;;;;;18.50;10.70;;;;;;;14.75;52.15;102165.75;5063117;28;20423;-71
2021/09/08 00:44:46;;;;;;;28.70;12.55;;;;;;;14.74;52.08;102165.81;5062436;28;20036;-71
2021/09/08 00:47:14;;;;;;;19.40;11.98;;;;;;;14.75;51.83;102165.75;5058886;28;20035;-71
2021/09/08 00:49:40;;;;;;;22.27;11.45;;;;;;;14.66;52.26;102165.25;5064043;28;20430;-71
2021/09/08 00:52:10;;;;;;;20.73;11.98;;;;;;;14.69;51.93;102160.72;5044456;28;20119;-71
2021/09/08 00:54:36;;;;;;;22.83;13.20;;;;;;;14.65;52.05;102164.38;5064306;28;20032;-71
2021/09/08 00:57:08;;;;;;;19.85;11.30;;;;;;;14.58;52.20;102164.66;5063556;28;20040;-71
2021/09/08 00:59:34;;;;;;;21.17;12.40;;;;;;;14.62;51.88;102159.25;5061474;28;20040;-71
2021/09/08 01:02:04;;;;;;;23.40;12.85;;;;;;;14.62;51.91;102161.88;5068174;28;20028;-71
2021/09/08 01:04:32;;;;;;;22.05;12.93;;;;;;;14.62;52.03;102159.25;5064097;28;20021;-71
2021/09/08 01:06:58;;;;;;;24.80;13.20;;;;;;;14.55;52.01;102155.13;5046329;28;20056;-71
2021/09/08 01:09:27;;;;;;;23.75;13.00;;;;;;;14.60;52.03;102154.94;5060760;28;20880;-71
2021/09/08 01:11:54;;;;;;;23.30;11.93;;;;;;;14.53;51.70;102149.91;5063950;28;20063;-72
2021/09/08 01:14:20;;;;;;;25.40;13.57;;;;;;;14.52;51.61;102155.22;5062289;28;20056;-71
2021/09/08 01:16:56;;;;;;;25.45;13.52;;;;;;;14.43;52.22;102150.28;5062947;28;20039;-71
2021/09/08 01:19:21;;;;;;;25.33;13.52;;;;;;;14.39;52.13;102148.66;5061505;28;20039;-71
2021/09/08 01:21:48;;;;;;;23.77;13.70;;;;;;;14.36;52.26;102147.84;5061999;28;20617;-71
2021/09/08 01:24:14;;;;;;;24.05;12.18;;;;;;;14.35;52.42;102147.91;5061594;28;20123;-71
2021/09/08 01:26:42;;;;;;;26.67;14.52;;;;;;;14.23;52.80;102151.84;5063539;28;20039;-72
2021/09/08 01:29:09;;;;;;;24.63;14.52;;;;;;;14.22;52.44;102147.47;5059348;28;20331;-71
2021/09/08 01:31:36;;;;;;;28.13;15.63;;;;;;;14.12;53.16;102146.97;5045220;28;20071;-71
2021/09/08 01:34:03;;;;;;;28.33;15.90;;;;;;;14.09;53.10;102140.94;5050528;28;20024;-71
2021/09/08 01:36:29;;;;;;;28.52;14.82;;;;;;;14.09;53.44;102146.19;5045966;28;20069;-71
2021/09/08 01:38:54;;;;;;;24.38;13.98;;;;;;;14.09;53.43;102146.19;5059806;28;20056;-71
2021/09/08 01:41:20;;;;;;;25.63;13.60;;;;;;;14.15;53.41;102151.25;5061874;28;20092;-71
2021/09/08 01:43:46;;;;;;;24.98;14.25;;;;;;;14.17;53.10;102141.53;5065926;28;20052;-71
2021/09/08 01:46:19;;;;;;;25.75;14.20;;;;;;;14.18;52.97;102145.00;5063191;28;20036;-71
2021/09/08 01:48:45;;;;;;;25.05;14.02;;;;;;;14.17;53.08;102145.94;5062004;28;20090;-72
2021/09/08 01:51:10;;;;;;;27.38;14.02;;;;;;;14.09;53.11;102138.31;5061894;28;20044;-71
2021/09/08 01:53:36;;;;;;;33.63;17.90;;;;;;;14.01;53.35;102138.59;5062498;28;20116;-71
2021/09/08 01:56:01;;;;;;;34.45;16.38;;;;;;;13.94;53.30;102137.94;5064658;28;20093;-71
2021/09/08 01:58:27;;;;;;;30.77;16.17;;;;;;;13.89;53.73;102129.34;5061526;28;20041;-71
2021/09/08 02:00:53;;;;;;;33.10;16.88;;;;;;;13.91;53.68;102132.75;5062823;28;20028;-71
2021/09/08 02:03:18;;;;;;;26.45;14.23;;;;;;;13.97;53.37;102133.50;5059324;28;20020;-71
2021/09/08 02:05:44;;;;;;;23.65;13.77;;;;;;;14.00;53.62;102134.22;5062451;28;20036;-71
2021/09/08 02:08:09;;;;;;;28.38;15.95;;;;;;;14.03;53.19;102130.63;5062658;28;20040;-72
2021/09/08 02:10:35;;;;;;;28.92;15.23;;;;;;;14.07;53.01;102129.63;5063046;28;20063;-71
2021/09/08 02:13:04;;;;;;;35.45;17.25;;;;;;;14.01;53.05;102130.69;5067469;28;20067;-71
2021/09/08 02:15:29;;;;;;;27.98;15.40;;;;;;;14.01;53.02;102121.94;5060987;28;20037;-71
2021/09/08 02:17:55;;;;;;;30.58;17.48;;;;;;;13.98;53.38;102127.31;5062190;28;20035;-72
2021/09/08 02:20:21;;;;;;;29.58;16.55;;;;;;;13.94;53.48;102127.44;5076714;28;20455;-71
2021/09/08 02:22:46;;;;;;;27.90;16.02;;;;;;;13.92;53.54;102124.00;5042129;28;20040;-71
2021/09/08 02:25:13;;;;;;;26.50;15.07;;;;;;;13.91;53.55;102127.50;5059237;28;20190;-71
2021/09/08 02:27:38;;;;;;;27.83;15.13;;;;;;;13.91;53.45;102129.28;5062757;28;20040;-71
2021/09/08 02:30:04;;;;;;;24.90;14.52;;;;;;;13.93;53.27;102124.84;5058268;28;20039;-71
2021/09/08 02:32:30;;;;;;;29.50;16.98;;;;;;;13.96;53.28;102123.88;5079997;28;20083;-71
2021/09/08 02:34:55;;;;;;;37.10;19.30;;;;;;;13.88;53.25;102122.38;5042920;28;20080;-72
2021/09/08 02:37:21;;;;;;;35.53;19.80;;;;;;;13.83;53.94;102113.78;5080746;28;20127;-71
2021/09/08 02:39:47;;;;;;;34.35;18.10;;;;;;;13.85;53.90;102114.59;5059834;28;20170;-71
2021/09/08 02:42:13;;;;;;;34.13;17.98;;;;;;;13.83;53.70;102113.78;5062889;28;20522;-71
2021/09/08 02:44:38;;;;;;;30.45;16.40;;;;;;;13.85;53.48;102106.72;5042727;28;20546;-71
2021/09/08 02:47:04;;;;;;;26.33;15.07;;;;;;;13.85;53.39;102105.84;5057560;28;20040;-71
2021/09/08 02:49:30;;;;;;;21.30;13.38;;;;;;;13.85;53.49;102109.34;5060739;28;20043;-71
2021/09/08 02:51:55;;;;;;;32.38;17.23;;;;;;;13.79;53.49;102103.44;5066023;28;20028;-71
2021/09/08 02:54:21;;;;;;;34.35;18.33;;;;;;;13.73;53.60;102102.72;5059865;28;20041;-71
2021/09/08 02:56:46;;;;;;;37.13;18.17;;;;;;;13.65;53.72;102103.88;5063654;28;20029;-71
2021/09/08 02:59:12;;;;;;;30.25;16.17;;;;;;;13.68;53.65;102098.53;5060908;28;20033;-71
2021/09/08 03:01:37;;;;;;;36.20;19.40;;;;;;;13.67;53.65;102104.69;5065419;28;20020;-71
2021/09/08 03:04:03;;;;;;;31.10;17.02;;;;;;;13.72;53.72;102108.03;5062702;28;20060;-71
2021/09/08 03:06:28;;;;;;;26.92;14.40;;;;;;;13.78;53.36;102105.19;5063168;28;20032;-71
2021/09/08 03:08:54;;;;;;;28.20;13.55;;;;;;;13.74;53.27;102108.81;5060708;28;20028;-71
2021/09/08 03:11:20;;;;;;;30.17;15.55;;;;;;;13.67;53.40;102099.44;5062958;28;20139;-71
2021/09/08 03:13:46;;;;;;;35.28;16.02;;;;;;;13.69;53.16;102095.00;5043929;28;20043;-71
2021/09/08 03:16:11;;;;;;;25.58;15.48;;;;;;;13.66;53.35;102100.38;5062069;28;20131;-71
2021/09/08 03:18:37;;;;;;;30.05;13.32;;;;;;;13.66;53.12;102095.97;5060801;28;20036;-71
2021/09/08 03:21:03;;;;;;;24.15;13.63;;;;;;;13.64;53.02;102102.19;5063025;28;20049;-71
2021/09/08 03:23:28;;;;;;;32.42;17.60;;;;;;;13.60;53.21;102101.41;5064988;28;20105;-71
2021/09/08 03:25:54;;;;;;;26.25;15.20;;;;;;;13.61;53.17;102097.91;5062148;28;20502;-71
2021/09/08 03:28:19;;;;;;;32.95;15.95;;;;;;;13.55;53.21;102105.09;5041753;28;20090;-72
2021/09/08 03:30:45;;;;;;;31.15;17.00;;;;;;;13.51;53.66;102097.28;5059557;28;20040;-71
2021/09/08 03:33:10;;;;;;;33.63;19.70;;;;;;;13.49;53.81;102091.22;5064032;28;20166;-71
2021/09/08 03:35:36;;;;;;;38.92;19.58;;;;;;;13.50;54.17;102085.06;5076120;28;21043;-71
2021/09/08 03:38:01;;;;;;;41.45;18.52;;;;;;;13.56;54.13;102077.91;5061000;28;20045;-71
2021/09/08 03:40:27;;;;;;;34.95;19.42;;;;;;;13.53;54.11;102086.75;5060306;28;20043;-71
2021/09/08 03:42:52;;;;;;;35.38;18.02;;;;;;;13.55;54.04;102073.56;5064167;28;20054;-71
2021/09/08 03:45:18;;;;;;;32.88;17.13;;;;;;;13.59;54.13;102080.47;5061468;28;20044;-71
2021/09/08 03:47:44;;;;;;;31.73;17.67;;;;;;;13.55;54.07;102077.03;5061713;28;20063;-71
2021/09/08 03:50:10;;;;;;;33.42;19.17;;;;;;;13.57;54.55;102074.41;5060113;28;20280;-71
2021/09/08 03:52:36;;;;;;;33.17;17.58;;;;;;;13.62;54.25;102075.09;5060614;28;20040;-71
2021/09/08 03:55:02;;;;;;;31.52;16.50;;;;;;;13.58;54.12;102070.84;5055678;22;20077;-69
2021/09/08 03:57:38;;;;;;;33.38;17.45;;;;;;;13.62;54.06;102069.84;5006584;28;20038;-69
2021/09/08 04:00:08;;;;;;;28.80;16.08;;;;;;;13.63;53.84;102075.06;5002857;28;20379;-69
2021/09/08 04:02:36;;;;;;;33.08;17.85;;;;;;;13.57;53.96;102070.00;5006425;28;20022;-69
2021/09/08 04:05:04;;;;;;;30.30;15.10;;;;;;;13.58;54.26;102076.09;5004576;28;20030;-69
2021/09/08 04:07:32;;;;;;;31.85;17.52;;;;;;;13.60;53.95;102066.41;5021044;28;20125;-69
2021/09/08 04:09:57;;;;;;;33.00;17.67;;;;;;;13.57;54.11;102072.63;5004978;28;20758;-69
2021/09/08 04:12:22;;;;;;;33.28;17.30;;;;;;;13.60;53.90;102064.63;5005898;28;20521;-69
2021/09/08 04:14:48;;;;;;;25.63;15.23;;;;;;;13.59;54.24;102065.56;5006613;28;20401;-69
2021/09/08 04:17:13;;;;;;;35.15;17.80;;;;;;;13.50;54.13;102061.44;5004676;28;20490;-69
2021/09/08 04:19:39;;;;;;;30.33;17.42;;;;;;;13.47;54.26;102058.94;5005708;28;20109;-68
2021/09/08 04:22:04;;;;;;;32.03;16.67;;;;;;;13.44;54.44;102069.50;5004766;28;20522;-68
2021/09/08 04:24:30;;;;;;;28.38;16.35;;;;;;;13.45;54.46;102058.13;5005574;28;20033;-68
2021/09/08 04:26:58;;;;;;;34.33;17.92;;;;;;;13.39;54.93;102050.44;5005031;28;20256;-66
2021/09/08 04:29:25;;;;;;;28.48;16.25;;;;;;;13.41;54.67;102046.00;5005441;28;20036;-66
2021/09/08 04:31:51;;;;;;;28.42;15.55;;;;;;;13.39;54.44;102050.44;5004575;28;20033;-67
2021/09/08 04:34:16;;;;;;;29.70;15.65;;;;;;;13.39;54.31;102045.19;5004593;28;20069;-67
2021/09/08 04:36:42;;;;;;;26.60;15.10;;;;;;;13.40;54.64;102049.50;5004988;28;20034;-68
2021/09/08 04:39:07;;;;;;;28.42;15.93;;;;;;;13.39;54.88;102042.56;5005092;28;20053;-69
2021/09/08 04:41:33;;;;;;;27.95;15.07;;;;;;;13.39;54.47;102044.34;5006165;28;20140;-69
2021/09/08 04:43:58;;;;;;;26.15;14.68;;;;;;;13.38;54.58;102043.44;5003985;28;20038;-68
2021/09/08 04:46:24;;;;;;;25.83;14.18;;;;;;;13.37;54.22;102054.03;5004746;28;20034;-68
2021/09/08 04:48:51;;;;;;;31.13;16.27;;;;;;;13.31;54.55;102047.19;5008052;28;20030;-68
2021/09/08 04:51:17;;;;;;;26.67;15.98;;;;;;;13.30;54.42;102048.13;5008493;28;20097;-68
2021/09/08 04:53:44;;;;;;;21.20;13.80;;;;;;;13.31;54.13;102044.56;5009180;28;20395;-68
2021/09/08 04:56:14;;;;;;;27.75;14.98;;;;;;;13.32;54.08;102039.28;5011669;28;20045;-68
2021/09/08 04:58:39;;;;;;;26.38;14.27;;;;;;;13.39;54.00;102045.19;5022828;28;20490;-69
2021/09/08 05:01:05;;;;;;;25.42;13.25;;;;;;;13.38;53.84;102043.44;5009996;28;20064;-72
2021/09/08 05:03:32;;;;;;;23.70;13.52;;;;;;;13.36;53.89;102045.28;5008777;28;20498;-69
2021/09/08 05:05:58;;;;;;;29.38;14.23;;;;;;;13.36;54.13;102044.41;5008900;28;20025;-66
2021/09/08 05:08:24;;;;;;;26.90;15.18;;;;;;;13.39;54.32;102045.19;5007764;28;20540;-68
2021/09/08 05:10:49;;;;;;;27.88;15.75;;;;;;;13.45;54.13;102047.63;5010084;28;20498;-71
2021/09/08 05:13:15;;;;;;;26.90;14.80;;;;;;;13.53;54.35;102045.56;5006667;28;20044;-71
2021/09/08 05:15:40;;;;;;;25.90;14.65;;;;;;;13.53;54.15;102049.97;5009267;28;20058;-71
2021/09/08 05:18:05;;;;;;;24.85;13.23;;;;;;;13.65;53.90;102046.97;5008880;28;20044;-70
2021/09/08 05:20:33;;;;;;;25.05;13.45;;;;;;;13.71;53.52;102043.25;5008601;28;20569;-71
2021/09/08 05:22:58;;;;;;;24.38;14.80;;;;;;;13.73;53.28;102033.56;5008972;28;20093;-70
2021/09/08 05:25:24;;;;;;;27.45;15.25;;;;;;;13.74;53.86;102040.50;5008778;28;20026;-71
2021/09/08 05:27:54;;;;;;;26.00;16.05;;;;;;;13.73;53.50;102044.06;5010101;28;20037;-69
2021/09/08 05:30:20;;;;;;;26.98;15.13;;;;;;;13.86;53.37;102040.09;5006998;28;20038;-70
2021/09/08 05:32:47;;;;;;;26.40;14.60;;;;;;;13.97;52.99;102036.25;5007311;28;20033;-71
2021/09/08 05:35:16;;;;;;;21.40;13.05;;;;;;;14.09;53.08;102043.66;5007666;28;20045;-69
2021/09/08 05:37:42;;;;;;;23.58;14.68;;;;;;;14.14;52.99;102039.97;5008833;28;20022;-68
2021/09/08 05:40:09;;;;;;;27.48;14.63;;;;;;;14.20;52.64;102038.88;5009868;28;20038;-69
2021/09/08 05:42:35;;;;;;;22.35;14.85;;;;;;;14.27;52.50;102044.75;5008823;28;20111;-68
2021/09/08 05:45:01;;;;;;;28.02;15.00;;;;;;;14.33;52.54;102040.13;5007867;28;20034;-70
2021/09/08 05:47:26;;;;;;;24.70;14.95;;;;;;;14.47;52.23;102041.41;5008123;28;20049;-69
2021/09/08 05:49:52;;;;;;;20.67;13.13;;;;;;;14.56;51.99;102041.06;5008027;28;20041;-70
2021/09/08 05:52:19;;;;;;;22.10;13.48;;;;;;;14.91;51.77;102033.56;4993622;28;20026;-70
2021/09/08 05:54:44;;;;;;;22.52;13.90;;;;;;;16.20;49.60;102042.16;5008297;28;20048;-68
2021/09/08 05:57:12;;;;;;;22.55;14.60;;;;;;;17.99;44.82;102044.03;5006575;28;20133;-67
2021/09/08 05:59:40;;;;;;;19.60;11.98;;;;;;;19.92;40.37;102042.81;5006036;28;20109;-67
2021/09/08 06:02:12;;;;;;;17.35;11.45;;;;;;;21.26;37.96;102043.09;5005448;28;20494;-67
2021/09/08 06:04:38;;;;;;;19.55;11.20;;;;;;;21.88;36.32;102044.25;5005871;28;20029;-68
2021/09/08 06:07:05;;;;;;;17.35;10.48;;;;;;;22.52;33.54;102039.66;5006989;28;20018;-67
2021/09/08 06:09:40;;;;;;;17.40;10.77;;;;;;;23.48;31.06;102037.94;5006977;28;20044;-67
2021/09/08 06:12:06;;;;;;;12.43;9.10;;;;;;;23.69;30.42;102033.59;5005387;28;20038;-68
2021/09/08 06:14:31;;;;;;;24.90;10.65;;;;;;;24.08;29.66;102036.78;5006996;28;20036;-67
2021/09/08 06:16:59;;;;;;;22.48;12.27;;;;;;;23.96;29.98;102045.75;5006877;28;20045;-68
2021/09/08 06:19:27;;;;;;;17.25;11.50;;;;;;;23.72;30.29;102044.03;5007056;28;20394;-67
2021/09/08 06:21:54;;;;;;;18.63;11.18;;;;;;;23.88;30.92;102041.03;5006904;28;20029;-67
2021/09/08 06:24:22;;;;;;;16.90;10.88;;;;;;;24.47;28.73;102044.41;5005972;28;20022;-68
2021/09/08 06:26:48;;;;;;;16.90;11.02;;;;;;;24.81;29.37;102039.81;5006232;28;20029;-67
2021/09/08 06:29:16;;;;;;;16.63;9.93;;;;;;;24.87;28.68;102039.31;5004897;28;20041;-67
2021/09/08 06:31:42;;;;;;;14.77;10.15;;;;;;;25.09;28.62;102042.91;5005859;28;20091;-68
2021/09/08 06:34:09;;;;;;;14.35;9.77;;;;;;;25.52;28.38;102039.25;5006453;28;20094;-66
2021/09/08 06:36:34;;;;;;;18.23;10.63;;;;;;;25.18;28.37;102036.75;5005827;28;20495;-67
2021/09/08 06:39:00;;;;;;;15.93;10.10;;;;;;;25.47;28.25;102036.94;5021525;28;20037;-67
2021/09/08 06:41:26;;;;;;;18.15;10.48;;;;;;;26.00;26.60;102030.59;5005366;28;20030;-67
2021/09/08 06:43:52;;;;;;;16.10;9.80;;;;;;;26.20;26.07;102029.72;5005378;28;20091;-69
2021/09/08 06:46:17;;;;;;;16.10;10.18;;;;;;;26.82;25.94;102024.16;5004734;28;20182;-67
2021/09/08 06:48:43;;;;;;;13.65;9.90;;;;;;;27.10;25.03;102017.09;5006327;28;20093;-68
2021/09/08 06:51:09;;;;;;;14.45;9.82;;;;;;;27.08;25.11;102027.97;5008372;28;20034;-67
2021/09/08 06:53:34;;;;;;;14.88;9.80;;;;;;;26.90;24.86;102022.47;5006061;28;20037;-68
2021/09/08 06:56:00;;;;;;;14.27;9.40;;;;;;;26.52;26.41;102030.50;5005870;28;20501;-68
2021/09/08 06:58:28;;;;;;;16.05;9.60;;;;;;;27.81;24.37;102027.41;5004377;28;20034;-68
2021/09/08 07:00:53;;;;;;;13.55;8.25;;;;;;;28.04;24.93;102027.03;5006715;28;20025;-68
2021/09/08 07:03:21;;;;;;;13.75;8.88;;;;;;;28.59;24.86;102029.69;5004768;28;21070;-67
2021/09/08 07:05:46;;;;;;;16.40;9.38;;;;;;;28.63;24.19;102033.75;5006477;28;20034;-68
2021/09/08 07:08:14;;;;;;;11.82;8.60;;;;;;;29.51;22.72;102017.63;5005230;28;20034;-67
2021/09/08 07:10:40;;;;;;;14.25;9.48;;;;;;;29.42;23.07;102021.28;5006447;28;20061;-68
2021/09/08 07:13:09;;;;;;;13.40;10.30;;;;;;;29.33;23.54;102019.56;5003751;28;20052;-68
2021/09/08 07:15:34;;;;;;;15.40;8.48;;;;;;;29.58;23.04;102021.38;5006839;28;20068;-68
2021/09/08 07:18:01;;;;;;;14.63;9.57;;;;;;;29.87;22.91;102012.13;5005563;28;20030;-68
2021/09/08 07:20:31;;;;;;;12.82;9.10;;;;;;;30.09;21.53;102020.66;5006550;28;20318;-68
2021/09/08 07:22:59;;;;;;;14.40;8.73;;;;;;;29.70;22.30;102010.34;5006340;28;20030;-67
2021/09/08 07:25:27;;;;;;;12.63;8.77;;;;;;;29.88;22.05;102013.78;5005651;28;20037;-68
2021/09/08 07:27:53;;;;;;;11.63;8.57;;;;;;;28.89;23.36;102011.47;5021028;28;20229;-67
2021/09/08 07:30:18;;;;;;;12.23;9.30;;;;;;;28.47;23.95;102017.44;5003014;28;20046;-68
2021/09/08 07:32:43;;;;;;;12.13;7.85;;;;;;;28.89;23.34;102015.00;5005968;28;20026;-68
2021/09/08 07:35:12;;;;;;;10.90;8.85;;;;;;;28.87;23.64;102014.31;5003234;28;20477;-68
2021/09/08 07:37:38;;;;;;;10.55;8.20;;;;;;;29.25;23.15;102011.41;5005990;28;20457;-68
2021/09/08 07:40:08;;;;;;;9.48;8.05;;;;;;;29.38;23.15;102005.63;5021540;28;20137;-67
2021/09/08 07:42:35;;;;;;;11.32;8.18;;;;;;;29.34;23.48;102008.59;5004935;28;20430;-68
2021/09/08 07:45:00;;;;;;;12.52;7.18;;;;;;;29.12;22.92;102011.81;5004305;28;20505;-68
2021/09/08 07:47:25;;;;;;;10.02;6.95;;;;;;;28.78;23.20;102009.03;5003285;28;20033;-67
2021/09/08 07:49:51;;;;;;;8.88;6.97;;;;;;;30.14;22.50;102002.13;5003297;28;20501;-68
2021/09/08 07:52:16;;;;;;;10.25;8.07;;;;;;;30.06;23.37;101999.38;5019836;28;20030;-68
2021/09/08 07:54:42;;;;;;;11.60;7.88;;;;;;;29.90;22.17;101997.47;5004890;28;20525;-68
2021/09/08 07:57:07;;;;;;;8.38;7.13;;;;;;;30.01;22.27;101999.03;5004388;28;20034;-68
2021/09/08 07:59:33;;;;;;;13.25;7.70;;;;;;;30.19;22.59;101999.75;5004238;28;20581;-70
2021/09/08 08:01:58;;;;;;;7.68;6.32;;;;;;;30.45;21.00;101993.41;5004671;28;20025;-68
2021/09/08 08:04:24;;;;;;;10.15;5.57;;;;;;;30.32;22.41;101994.75;5004906;28;20042;-68
2021/09/08 08:06:49;;;;;;;9.68;6.55;;;;;;;30.47;21.73;101997.63;5019802;28;20030;-69
2021/09/08 08:09:15;;;;;;;13.60;6.65;;;;;;;30.63;21.66;101994.13;5004300;28;20026;-68
2021/09/08 08:11:40;;;;;;;9.68;7.32;;;;;;;30.73;21.57;102000.19;5004838;28;20042;-68
2021/09/08 08:14:06;;;;;;;11.82;6.35;;;;;;;31.37;21.71;101991.38;5003216;28;20320;-68
2021/09/08 08:16:32;;;;;;;12.70;5.88;;;;;;;31.76;20.43;101988.72;5020814;28;20499;-69
2021/09/08 08:18:58;;;;;;;7.90;5.82;;;;;;;32.47;20.20;101998.66;5032772;23;20068;-80
2021/09/08 08:21:23;;;;;;;7.35;6.10;;;;;;;31.74;20.16;101995.28;5052477;28;20254;-80
2021/09/08 08:23:49;;;;;;;12.10;6.45;;;;;;;31.16;20.30;101992.78;5039468;28;20059;-82
2021/09/08 08:26:18;;;;;;;11.60;5.85;;;;;;;31.31;20.86;101990.19;5017145;28;20030;-80
2021/09/08 08:28:44;;;;;;;8.55;6.35;;;;;;;30.75;20.93;101990.06;5046097;28;20032;-79
2021/09/08 08:31:11;;;;;;;11.07;6.60;;;;;;;30.32;21.28;101993.91;5021653;23;20032;-68
2021/09/08 08:33:36;;;;;;;10.43;5.90;;;;;;;30.39;21.37;101990.34;5039302;28;20056;-69
2021/09/08 08:36:02;;;;;;;8.43;6.57;;;;;;;30.46;21.34;101987.84;5037444;28;20037;-68
2021/09/08 08:38:27;;;;;;;5.68;4.75;;;;;;;30.26;21.56;101987.31;5039957;28;20443;-68
2021/09/08 08:40:53;;;;;;;7.40;5.72;;;;;;;30.48;22.21;101982.28;5029744;28;20107;-68
2021/09/08 08:43:20;;;;;;;7.85;6.13;;;;;;;30.46;21.47;101990.53;5041272;28;20041;-68
2021/09/08 08:45:46;;;;;;;9.13;6.30;;;;;;;29.83;21.95;101983.78;5024745;28;20112;-68
2021/09/08 08:48:11;;;;;;;8.95;6.53;;;;;;;28.87;23.19;101981.19;5038732;28;20033;-68
2021/09/08 08:50:37;;;;;;;12.80;5.85;;;;;;;28.64;24.45;101991.59;5039304;28;20029;-69
2021/09/08 08:53:05;;;;;;;10.55;7.32;;;;;;;28.61;23.74;101986.47;5039424;28;20045;-68
2021/09/08 08:55:31;;;;;;;8.98;6.00;;;;;;;27.50;25.07;101986.53;5042649;28;20027;-70
2021/09/08 08:57:58;;;;;;;10.60;6.32;;;;;;;26.97;26.20;101982.50;5043563;28;20584;-70
2021/09/08 09:00:24;;;;;;;13.10;6.38;;;;;;;26.73;27.14;101982.13;5043090;28;20464;-69
2021/09/08 09:02:52;;;;;;;9.57;6.90;;;;;;;26.75;27.01;101980.97;5042449;28;20033;-69
2021/09/08 09:05:38;;;;;;;10.57;7.05;;;;;;;26.42;27.21;101974.16;5039341;28;20494;-70
2021/09/08 09:08:07;;;;;;;15.80;6.82;;;;;;;26.06;28.31;101972.00;5042916;28;20036;-69
2021/09/08 09:10:33;;;;;;;10.27;6.25;;;;;;;25.84;28.26;101972.19;5041696;28;20067;-69
2021/09/08 09:12:59;;;;;;;10.38;6.60;;;;;;;26.45;28.42;101968.53;5041967;28;20057;-70
2021/09/08 09:15:25;;;;;;;10.30;6.53;;;;;;;26.79;27.73;101963.63;5040598;28;20110;-69
2021/09/08 09:17:51;;;;;;;15.63;7.80;;;;;;;26.52;27.83;101964.31;5044157;28;20496;-69
2021/09/08 09:20:21;;;;;;;9.32;5.97;;;;;;;26.32;27.94;101958.09;5021124;28;20041;-69
2021/09/08 09:22:51;;;;;;;11.50;6.68;;;;;;;26.69;27.72;101960.97;5041561;28;20092;-70
2021/09/08 09:25:22;;;;;;;8.25;6.95;;;;;;;26.49;28.19;101959.22;5042480;28;20497;-69
2021/09/08 09:27:50;;;;;;;10.93;7.13;;;;;;;26.53;28.04;101962.47;5039231;28;20116;-70
2021/09/08 09:30:19;;;;;;;10.63;6.35;;;;;;;26.47;28.17;101955.84;5042131;28;20215;-70
2021/09/08 09:32:47;;;;;;;10.15;6.47;;;;;;;26.03;27.62;101955.34;5042488;28;20029;-70
2021/09/08 09:35:17;;;;;;;10.48;5.68;;;;;;;26.05;27.88;101953.38;5040353;28;20041;-70
2021/09/08 09:37:54;;;;;;;8.25;5.13;;;;;;;26.45;28.59;101947.09;5022098;28;20064;-70
2021/09/08 09:40:26;;;;;;;8.77;5.85;;;;;;;26.38;27.57;101951.31;5022267;28;20037;-70
2021/09/08 09:42:52;;;;;;;9.68;5.28;;;;;;;26.10;27.63;101943.09;5042619;28;20059;-69
2021/09/08 09:45:18;;;;;;;5.93;5.35;;;;;;;26.17;27.51;101948.75;5041331;28;20025;-70
2021/09/08 09:47:45;;;;;;;10.80;6.00;;;;;;;26.34;28.36;101955.28;5024355;28;20637;-68
2021/09/08 09:50:19;;;;;;;9.75;5.82;;;;;;;26.95;26.58;101944.25;5041552;28;20031;-69
2021/09/08 09:52:52;;;;;;;10.55;5.07;;;;;;;26.85;27.73;101943.44;5040487;28;20086;-68
2021/09/08 09:55:18;;;;;;;8.27;5.57;;;;;;;26.84;27.26;101944.41;5040980;28;20116;-69
2021/09/08 09:57:45;;;;;;;9.35;5.63;;;;;;;26.84;26.94;101941.75;5023490;28;20112;-68
2021/09/08 10:00:12;;;;;;;10.80;6.22;;;;;;;26.89;26.44;101937.66;5041372;28;20041;-67
2021/09/08 10:02:39;;;;;;;9.25;6.03;;;;;;;27.03;26.57;101939.03;5037372;28;20055;-69
2021/09/08 10:05:06;;;;;;;7.13;4.90;;;;;;;27.28;26.32;101924.16;5041185;28;20111;-69
2021/09/08 10:07:34;;;;;;;6.90;4.90;;;;;;;26.89;26.50;101923.38;5040983;28;20033;-70
2021/09/08 10:10:03;;;;;;;8.80;5.35;;;;;;;26.60;27.23;101918.91;5041851;28;20023;-68
2021/09/08 10:12:40;;;;;;;8.50;4.68;;;;;;;26.86;27.48;101919.13;5038546;28;20032;-68
2021/09/08 10:15:07;;;;;;;7.00;4.53;;;;;;;27.63;26.32;101916.38;5027397;28;20045;-68
2021/09/08 10:18:25;;;;;;;6.07;4.78;;;;;;;27.82;25.08;101910.91;5041837;28;20037;-68
2021/09/08 10:21:05;;;;;;;7.60;4.63;;;;;;;27.64;25.15;101907.34;5036246;28;20396;-69
2021/09/08 10:23:39;;;;;;;8.23;5.22;;;;;;;27.59;24.86;101914.97;5041487;28;20029;-69
2021/09/08 10:26:13;;;;;;;7.60;5.55;;;;;;;27.41;26.39;101904.19;5037635;28;20055;-69
2021/09/08 10:28:40;;;;;;;7.15;4.85;;;;;;;27.40;25.56;101905.16;5041173;28;20463;-69
2021/09/08 10:31:07;;;;;;;9.23;5.28;;;;;;;27.92;24.95;101900.97;5040878;28;20163;-68
2021/09/08 10:33:35;;;;;;;8.43;5.57;;;;;;;28.02;24.74;101900.88;5042073;28;20131;-69
2021/09/08 10:36:01;;;;;;;9.38;5.05;;;;;;;27.83;24.60;101896.50;5042302;28;20037;-68
2021/09/08 10:38:30;;;;;;;6.38;4.53;;;;;;;27.56;24.82;101900.00;5042606;28;20044;-69
2021/09/08 10:40:56;;;;;;;7.25;5.38;;;;;;;27.58;25.19;101889.09;5039032;28;20052;-69
2021/09/08 10:43:33;;;;;;;5.80;4.68;;;;;;;27.81;25.91;101881.50;5037746;28;20060;-69
2021/09/08 10:46:00;;;;;;;7.93;4.75;;;;;;;28.40;26.32;101881.94;5019140;28;20102;-68
2021/09/08 10:48:41;;;;;;;5.35;4.18;;;;;;;28.21;23.85;101889.19;5042182;28;20047;-68
2021/09/08 10:51:16;;;;;;;7.05;4.03;;;;;;;27.92;23.68;101887.53;5038294;28;20040;-68
2021/09/08 10:53:41;;;;;;;7.68;4.82;;;;;;;28.31;24.15;101873.81;5043521;28;20029;-69
2021/09/08 10:56:08;;;;;;;9.68;5.13;;;;;;;28.67;24.51;101873.75;5040770;28;20497;-68
2021/09/08 10:58:59;;;;;;;12.18;4.70;;;;;;;29.27;23.45;101870.25;5023935;28;20029;-69
2021/09/08 11:01:26;;;;;;;9.40;4.45;;;;;;;29.27;23.43;101866.72;5040495;28;20029;-69
2021/09/08 11:03:53;;;;;;;8.50;5.10;;;;;;;28.72;23.42;101868.78;5009713;28;20068;-69
2021/09/08 11:06:37;;;;;;;6.93;4.32;;;;;;;28.87;24.05;101858.25;5036928;28;20562;-68
2021/09/08 11:09:05;;;;;;;6.32;4.53;;;;;;;28.43;24.33;101865.47;5039754;28;20041;-67
2021/09/08 11:11:31;;;;;;;7.07;3.90;;;;;;;28.24;23.44;101870.03;5024691;28;20120;-69
2021/09/08 11:13:57;;;;;;;6.78;4.47;;;;;;;28.30;23.23;101855.13;5022896;28;20741;-69